createdAt,value
2019-01-26T00:03:02.110Z,8.69
2019-01-26T00:08:04.728Z,8.84
2019-01-26T00:13:07.451Z,8.90
2019-01-26T00:18:10.151Z,8.95
2019-01-26T00:23:12.760Z,8.77
2019-01-26T00:28:15.174Z,8.72
2019-01-26T00:33:17.773Z,8.94
2019-01-26T00:38:20.258Z,8.80
2019-01-26T00:43:22.708Z,8.84
2019-01-26T00:48:25.208Z,8.80
2019-01-26T00:53:27.728Z,8.95
2019-01-26T00:58:30.478Z,8.95
2019-01-26T01:03:33.011Z,8.90
2019-01-26T01:08:35.615Z,8.96
2019-01-26T01:13:38.149Z,8.94
2019-01-26T01:18:40.688Z,8.88
2019-01-26T01:23:43.447Z,8.93
2019-01-26T01:28:46.171Z,8.98
2019-01-26T01:33:48.800Z,8.95
2019-01-26T01:38:51.505Z,8.67
2019-01-26T01:43:54.064Z,8.52
2019-01-26T01:48:56.909Z,8.51
2019-01-26T01:53:59.549Z,8.60
2019-01-26T01:59:02.200Z,8.73
2019-01-26T02:04:04.771Z,8.76
2019-01-26T02:09:08.545Z,8.83
2019-01-26T02:14:11.095Z,8.82
2019-01-26T02:19:13.732Z,8.78
2019-01-26T02:24:16.331Z,8.75
2019-01-26T02:29:18.915Z,8.66
2019-01-26T02:34:21.490Z,8.60
2019-01-26T02:39:23.970Z,8.68
2019-01-26T02:44:26.437Z,8.65
2019-01-26T02:49:28.935Z,8.65
2019-01-26T02:54:31.585Z,8.75
2019-01-26T02:59:35.094Z,8.71
2019-01-26T03:04:37.704Z,8.67
2019-01-26T03:09:40.345Z,8.85
2019-01-26T03:14:43.050Z,8.90
2019-01-26T03:24:55.719Z,8.84
2019-01-26T03:29:58.168Z,8.71
2019-01-26T03:35:00.735Z,8.65
2019-01-26T03:40:04.066Z,8.83
2019-01-26T03:45:08.468Z,8.78
2019-01-26T03:50:11.762Z,8.69
2019-01-26T03:55:16.865Z,8.62
2019-01-26T04:00:22.511Z,8.53
2019-01-26T04:05:25.137Z,8.67
2019-01-26T04:10:27.857Z,8.69
2019-01-26T04:15:30.307Z,8.71
2019-01-26T04:20:32.802Z,8.81
2019-01-26T04:25:35.351Z,8.82
2019-01-26T04:30:37.823Z,8.78
2019-01-26T04:35:40.396Z,8.78
2019-01-26T04:40:42.922Z,8.80
2019-01-26T04:45:45.551Z,8.90
2019-01-26T04:50:48.134Z,8.74
2019-01-26T04:55:50.667Z,8.57
2019-01-26T05:00:54.222Z,8.51
2019-01-26T05:05:56.765Z,8.56
2019-01-26T05:10:59.166Z,8.57
2019-01-26T05:16:01.616Z,8.64
2019-01-26T05:21:04.131Z,8.68
2019-01-26T05:26:06.717Z,8.71
2019-01-26T05:31:09.393Z,8.78
2019-01-26T05:36:11.986Z,8.69
2019-01-26T05:41:14.497Z,8.89
2019-01-26T05:46:16.972Z,8.86
2019-01-26T05:51:19.527Z,8.86
2019-01-26T05:56:22.070Z,8.77
2019-01-26T06:01:25.583Z,8.74
2019-01-26T06:06:28.101Z,8.92
2019-01-26T06:11:30.581Z,9.04
2019-01-26T06:16:33.306Z,9.09
2019-01-26T06:21:36.036Z,9.13
2019-01-26T06:26:38.516Z,9.13
2019-01-26T06:31:41.092Z,9.14
2019-01-26T06:36:43.611Z,9.18
2019-01-26T06:41:46.129Z,9.20
2019-01-26T06:46:48.705Z,9.26
2019-01-26T06:51:54.500Z,9.32
2019-01-26T06:56:57.047Z,9.29
2019-01-26T07:02:00.492Z,9.18
2019-01-26T07:07:08.356Z,9.16
2019-01-26T07:12:10.971Z,9.11
2019-01-26T07:17:13.510Z,9.18
2019-01-26T07:22:16.106Z,9.23
2019-01-26T07:27:18.661Z,9.22
2019-01-26T07:32:21.111Z,9.25
2019-01-26T07:37:23.656Z,9.10
2019-01-26T07:42:26.211Z,9.09
2019-01-26T07:47:28.686Z,9.13
2019-01-26T07:52:31.250Z,9.14
2019-01-26T07:57:33.866Z,9.14
2019-01-26T08:02:37.480Z,9.10
2019-01-26T08:07:40.466Z,9.13
2019-01-26T08:12:43.201Z,9.13
2019-01-26T08:17:45.766Z,9.11
2019-01-26T08:22:48.450Z,9.13
2019-01-26T08:27:51.228Z,9.13
2019-01-26T08:32:53.825Z,9.11
2019-01-26T08:37:56.300Z,9.08
2019-01-26T08:42:58.802Z,8.86
2019-01-26T08:48:01.366Z,8.91
2019-01-26T08:53:04.285Z,9.09
2019-01-26T08:58:06.786Z,9.23
2019-01-26T09:03:19.562Z,9.23
2019-01-26T09:08:22.179Z,9.20
2019-01-26T09:13:24.686Z,9.27
2019-01-26T09:18:27.200Z,9.30
2019-01-26T09:23:29.936Z,9.23
2019-01-26T09:28:32.551Z,9.27
2019-01-26T09:33:35.151Z,9.29
2019-01-26T09:38:37.752Z,9.28
2019-01-26T09:43:40.310Z,9.31
2019-01-26T09:48:46.288Z,9.33
2019-01-26T09:53:47.391Z,9.43
2019-01-26T09:58:49.953Z,9.43
2019-01-26T10:03:53.765Z,9.39
2019-01-26T10:08:56.351Z,9.34
2019-01-26T10:13:58.851Z,9.38
2019-01-26T10:19:01.391Z,9.42
2019-01-26T10:24:04.151Z,9.52
2019-01-26T10:29:06.726Z,9.60
2019-01-26T10:34:09.450Z,9.63
2019-01-26T10:39:17.753Z,9.72
2019-01-26T10:44:24.330Z,9.77
2019-01-26T10:49:26.932Z,9.78
2019-01-26T10:54:29.687Z,9.81
2019-01-26T10:59:32.354Z,9.78
2019-01-26T11:04:34.850Z,9.78
2019-01-26T11:09:37.410Z,9.76
2019-01-26T11:14:39.971Z,9.79
2019-01-26T11:19:43.912Z,9.76
2019-01-26T11:24:46.466Z,9.82
2019-01-26T11:29:49.092Z,9.82
2019-01-26T11:34:51.811Z,9.79
2019-01-26T11:40:01.768Z,9.78
2019-01-26T11:45:17.930Z,9.82
2019-01-26T11:50:27.231Z,9.85
2019-01-26T11:55:35.571Z,9.85
2019-01-26T12:00:59.433Z,9.84
2019-01-26T12:06:10.293Z,9.79
2019-01-26T12:11:12.910Z,9.79
2019-01-26T12:16:15.533Z,9.77
2019-01-26T12:21:18.291Z,9.73
2019-01-26T12:26:20.885Z,9.77
2019-01-26T12:31:23.431Z,9.78
2019-01-26T12:36:26.051Z,9.80
2019-01-26T12:41:28.827Z,9.87
2019-01-26T12:46:31.590Z,9.87
2019-01-26T12:51:34.166Z,9.92
2019-01-26T12:56:36.671Z,9.94
2019-01-26T13:01:39.151Z,9.93
2019-01-26T13:06:41.931Z,9.96
2019-01-26T13:11:45.177Z,10.01
2019-01-26T13:16:47.848Z,9.99
2019-01-26T13:21:50.473Z,10.00
2019-01-26T13:26:53.041Z,10.04
2019-01-26T13:31:58.251Z,10.05
2019-01-26T13:37:00.771Z,10.05
2019-01-26T13:42:03.451Z,10.03
2019-01-26T13:47:06.193Z,10.06
2019-01-26T13:52:08.807Z,10.09
2019-01-26T13:57:11.566Z,9.76
2019-01-26T14:02:14.551Z,9.53
2019-01-26T14:07:17.118Z,9.73
2019-01-26T14:12:19.590Z,9.64
2019-01-26T14:17:22.131Z,9.33
2019-01-26T14:22:24.632Z,8.82
2019-01-26T14:27:27.240Z,8.69
2019-01-26T14:32:29.831Z,8.84
2019-01-26T14:37:32.472Z,8.99
2019-01-26T14:42:35.071Z,9.41
2019-01-26T14:47:37.671Z,9.61
2019-01-26T14:52:40.247Z,9.33
2019-01-26T14:57:43.226Z,9.58
2019-01-26T15:02:45.831Z,9.33
2019-01-26T15:07:48.513Z,9.30
2019-01-26T15:12:51.195Z,9.27
2019-01-26T15:17:53.772Z,9.00
2019-01-26T15:22:56.773Z,9.02
2019-01-26T15:27:59.450Z,9.26
2019-01-26T15:33:02.592Z,8.95
2019-01-26T15:38:06.512Z,8.86
2019-01-26T15:43:09.266Z,8.98
2019-01-26T15:48:11.978Z,8.96
2019-01-26T15:53:14.573Z,9.03
2019-01-26T15:58:17.371Z,9.14
2019-01-26T16:03:19.950Z,9.10
2019-01-26T16:08:23.014Z,9.03
2019-01-26T16:13:25.611Z,9.09
2019-01-26T16:18:28.531Z,9.03
2019-01-26T16:23:31.252Z,8.95
2019-01-26T16:28:33.957Z,8.97
2019-01-26T16:33:36.572Z,9.07
2019-01-26T16:38:39.246Z,8.97
2019-01-26T16:43:43.806Z,8.96
2019-01-26T16:48:46.392Z,8.95
2019-01-26T16:53:49.006Z,8.91
2019-01-26T16:58:51.851Z,8.88
2019-01-26T17:03:54.631Z,8.96
2019-01-26T17:08:57.478Z,8.91
2019-01-26T17:14:00.214Z,8.76
2019-01-26T17:19:03.292Z,8.68
2019-01-26T17:24:06.051Z,8.71
2019-01-26T17:29:08.758Z,8.82
2019-01-26T17:34:11.509Z,8.88
2019-01-26T17:39:14.325Z,8.93
2019-01-26T17:44:16.867Z,8.93
2019-01-26T17:49:19.605Z,8.90
2019-01-26T17:54:22.266Z,8.83
2019-01-26T17:59:24.786Z,8.89
2019-01-26T18:04:27.326Z,8.91
2019-01-26T18:09:30.226Z,8.72
2019-01-26T18:14:33.086Z,8.50
2019-01-26T18:19:35.906Z,8.45
2019-01-26T18:24:38.585Z,8.21
2019-01-26T18:29:41.165Z,8.22
2019-01-26T18:34:43.842Z,8.21
2019-01-26T18:39:46.606Z,8.25
2019-01-26T18:44:49.666Z,8.33
2019-01-26T18:49:52.187Z,8.20
2019-01-26T18:54:54.687Z,8.24
2019-01-26T18:59:57.362Z,8.06
2019-01-26T19:05:03.494Z,8.12
2019-01-26T19:10:07.666Z,8.02
2019-01-26T19:15:15.326Z,7.99
2019-01-26T19:20:18.122Z,8.11
2019-01-26T19:25:20.786Z,8.16
2019-01-26T19:30:24.469Z,8.27
2019-01-26T19:35:27.310Z,8.29
2019-01-26T19:40:29.966Z,8.34
2019-01-26T19:45:32.547Z,8.28
2019-01-26T19:50:35.203Z,8.25
2019-01-26T19:55:37.986Z,8.29
2019-01-26T20:00:40.734Z,8.31
2019-01-26T20:05:48.062Z,8.19
2019-01-26T20:10:48.146Z,8.15
2019-01-26T20:15:50.883Z,8.07
2019-01-26T20:20:53.546Z,8.18
2019-01-26T20:25:57.182Z,8.29
2019-01-26T20:30:59.689Z,8.21
2019-01-26T20:36:02.262Z,8.17
2019-01-26T20:41:05.086Z,8.22
2019-01-26T20:46:07.788Z,8.09
2019-01-26T20:51:10.641Z,8.09
2019-01-26T20:56:13.367Z,8.22
2019-01-26T21:01:16.362Z,8.21
2019-01-26T21:06:19.184Z,8.05
2019-01-26T21:11:22.787Z,8.08
2019-01-26T21:16:25.607Z,8.05
2019-01-26T21:21:31.973Z,7.99
2019-01-26T21:26:32.746Z,8.14
2019-01-26T21:31:35.354Z,8.19
2019-01-26T21:36:38.066Z,8.31
2019-01-26T21:41:40.822Z,8.32
2019-01-26T21:46:43.726Z,8.37
2019-01-26T21:51:46.515Z,8.40
2019-01-26T21:56:49.066Z,8.42
2019-01-26T22:01:51.802Z,8.46
2019-01-26T22:06:54.501Z,8.47
2019-01-26T22:11:57.428Z,8.57
2019-01-26T22:17:00.048Z,8.59
2019-01-26T22:22:02.666Z,8.64
2019-01-26T22:27:05.368Z,8.59
2019-01-26T22:32:07.966Z,8.57
2019-01-26T22:37:11.126Z,8.59
2019-01-26T22:42:13.847Z,8.66
2019-01-26T22:47:16.386Z,8.68
2019-01-26T22:52:19.107Z,8.61
2019-01-26T22:57:21.726Z,8.56
2019-01-26T23:02:24.525Z,8.64
2019-01-26T23:07:33.525Z,8.65
2019-01-26T23:12:43.618Z,8.69
2019-01-26T23:17:56.226Z,8.66
2019-01-26T23:23:11.018Z,8.71
2019-01-26T23:28:26.459Z,8.71
2019-01-26T23:33:29.142Z,8.84
2019-01-26T23:38:31.691Z,8.83
2019-01-26T23:43:34.426Z,8.84
2019-01-26T23:48:37.151Z,8.72
2019-01-26T23:53:39.591Z,8.63
2019-01-26T23:58:42.256Z,8.65
